sensor_id;sensor_type;location;lat;lon;timestamp;P1;durP1;ratioP1;P2;durP2;ratioP2
17614;SDS011;8926;49.720;6.576;2023-04-23T00:00:01;3.80;;;3.53;;
17614;SDS011;8926;49.720;6.576;2023-04-23T00:02:28;4.10;;;3.80;;
17614;SDS011;8926;49.720;6.576;2023-04-23T00:04:55;4.47;;;4.17;;
17614;SDS011;8926;49.720;6.576;2023-04-23T00:07:23;3.63;;;3.43;;
17614;SDS011;8926;49.720;6.576;2023-04-23T00:09:49;3.50;;;3.30;;
17614;SDS011;8926;49.720;6.576;2023-04-23T00:12:16;3.50;;;3.27;;
17614;SDS011;8926;49.720;6.576;2023-04-23T00:14:42;3.70;;;3.50;;
17614;SDS011;8926;49.720;6.576;2023-04-23T00:17:07;3.43;;;3.23;;
17614;SDS011;8926;49.720;6.576;2023-04-23T00:19:32;2.93;;;2.83;;
17614;SDS011;8926;49.720;6.576;2023-04-23T00:21:58;3.00;;;2.90;;
17614;SDS011;8926;49.720;6.576;2023-04-23T00:24:23;2.93;;;2.73;;
17614;SDS011;8926;49.720;6.576;2023-04-23T00:26:48;2.63;;;2.53;;
17614;SDS011;8926;49.720;6.576;2023-04-23T00:29:14;3.00;;;2.90;;
17614;SDS011;8926;49.720;6.576;2023-04-23T00:31:39;2.87;;;2.77;;
17614;SDS011;8926;49.720;6.576;2023-04-23T00:34:04;3.30;;;3.10;;
17614;SDS011;8926;49.720;6.576;2023-04-23T00:36:29;3.20;;;3.00;;
17614;SDS011;8926;49.720;6.576;2023-04-23T00:38:55;2.60;;;2.50;;
17614;SDS011;8926;49.720;6.576;2023-04-23T00:41:20;3.10;;;2.90;;
17614;SDS011;8926;49.720;6.576;2023-04-23T00:43:47;3.27;;;3.10;;
17614;SDS011;8926;49.720;6.576;2023-04-23T00:46:13;3.27;;;3.07;;
17614;SDS011;8926;49.720;6.576;2023-04-23T00:48:38;2.50;;;2.40;;
17614;SDS011;8926;49.720;6.576;2023-04-23T00:51:04;2.60;;;2.50;;
17614;SDS011;8926;49.720;6.576;2023-04-23T00:53:31;3.00;;;2.90;;
17614;SDS011;8926;49.720;6.576;2023-04-23T00:55:56;2.93;;;2.73;;
17614;SDS011;8926;49.720;6.576;2023-04-23T00:58:23;3.13;;;2.93;;
17614;SDS011;8926;49.720;6.576;2023-04-23T01:00:49;2.87;;;2.67;;
17614;SDS011;8926;49.720;6.576;2023-04-23T01:03:16;3.40;;;3.20;;
17614;SDS011;8926;49.720;6.576;2023-04-23T01:05:45;3.47;;;3.17;;
17614;SDS011;8926;49.720;6.576;2023-04-23T01:08:13;3.10;;;3.00;;
17614;SDS011;8926;49.720;6.576;2023-04-23T01:10:41;2.27;;;2.17;;
17614;SDS011;8926;49.720;6.576;2023-04-23T01:13:07;2.90;;;2.70;;
17614;SDS011;8926;49.720;6.576;2023-04-23T01:15:33;3.00;;;2.80;;
17614;SDS011;8926;49.720;6.576;2023-04-23T01:17:58;2.60;;;2.47;;
17614;SDS011;8926;49.720;6.576;2023-04-23T01:20:24;2.07;;;1.97;;
17614;SDS011;8926;49.720;6.576;2023-04-23T01:22:49;2.73;;;2.63;;
17614;SDS011;8926;49.720;6.576;2023-04-23T01:25:15;2.10;;;2.00;;
17614;SDS011;8926;49.720;6.576;2023-04-23T01:27:40;1.93;;;1.83;;
17614;SDS011;8926;49.720;6.576;2023-04-23T01:30:06;2.67;;;2.57;;
17614;SDS011;8926;49.720;6.576;2023-04-23T01:32:32;2.23;;;2.13;;
17614;SDS011;8926;49.720;6.576;2023-04-23T01:34:59;2.13;;;2.03;;
17614;SDS011;8926;49.720;6.576;2023-04-23T01:37:25;2.00;;;1.90;;
17614;SDS011;8926;49.720;6.576;2023-04-23T01:39:51;1.90;;;1.80;;
17614;SDS011;8926;49.720;6.576;2023-04-23T01:42:17;2.00;;;1.90;;
17614;SDS011;8926;49.720;6.576;2023-04-23T01:44:42;1.93;;;1.83;;
17614;SDS011;8926;49.720;6.576;2023-04-23T01:47:08;1.90;;;1.80;;
17614;SDS011;8926;49.720;6.576;2023-04-23T01:49:33;2.00;;;1.90;;
17614;SDS011;8926;49.720;6.576;2023-04-23T01:51:58;2.20;;;2.10;;
17614;SDS011;8926;49.720;6.576;2023-04-23T01:54:24;2.00;;;1.90;;
17614;SDS011;8926;49.720;6.576;2023-04-23T01:56:49;2.20;;;2.10;;
17614;SDS011;8926;49.720;6.576;2023-04-23T01:59:18;2.00;;;1.90;;
17614;SDS011;8926;49.720;6.576;2023-04-23T02:01:45;2.07;;;1.97;;
17614;SDS011;8926;49.720;6.576;2023-04-23T02:04:11;2.43;;;2.30;;
17614;SDS011;8926;49.720;6.576;2023-04-23T02:06:38;2.67;;;2.57;;
17614;SDS011;8926;49.720;6.576;2023-04-23T02:09:04;2.20;;;2.10;;
17614;SDS011;8926;49.720;6.576;2023-04-23T02:11:29;2.80;;;2.60;;
17614;SDS011;8926;49.720;6.576;2023-04-23T02:13:55;2.37;;;2.27;;
17614;SDS011;8926;49.720;6.576;2023-04-23T02:16:20;1.80;;;1.67;;
17614;SDS011;8926;49.720;6.576;2023-04-23T02:18:48;2.47;;;2.37;;
17614;SDS011;8926;49.720;6.576;2023-04-23T02:21:13;2.03;;;1.93;;
17614;SDS011;8926;49.720;6.576;2023-04-23T02:23:39;2.20;;;2.10;;
17614;SDS011;8926;49.720;6.576;2023-04-23T02:26:04;2.67;;;2.47;;
17614;SDS011;8926;49.720;6.576;2023-04-23T02:28:29;3.07;;;2.93;;
17614;SDS011;8926;49.720;6.576;2023-04-23T02:30:55;3.20;;;2.90;;
17614;SDS011;8926;49.720;6.576;2023-04-23T02:33:21;2.80;;;2.70;;
17614;SDS011;8926;49.720;6.576;2023-04-23T02:35:46;2.57;;;2.37;;
17614;SDS011;8926;49.720;6.576;2023-04-23T02:38:11;2.60;;;2.50;;
17614;SDS011;8926;49.720;6.576;2023-04-23T02:40:37;2.30;;;2.20;;
17614;SDS011;8926;49.720;6.576;2023-04-23T02:43:02;2.10;;;2.00;;
17614;SDS011;8926;49.720;6.576;2023-04-23T02:45:27;2.40;;;2.30;;
17614;SDS011;8926;49.720;6.576;2023-04-23T02:47:52;3.00;;;2.80;;
17614;SDS011;8926;49.720;6.576;2023-04-23T02:50:18;2.20;;;2.10;;
17614;SDS011;8926;49.720;6.576;2023-04-23T02:52:43;2.50;;;2.40;;
17614;SDS011;8926;49.720;6.576;2023-04-23T02:55:09;2.03;;;1.93;;
17614;SDS011;8926;49.720;6.576;2023-04-23T02:57:34;2.27;;;2.17;;
17614;SDS011;8926;49.720;6.576;2023-04-23T03:00:00;2.30;;;2.20;;
17614;SDS011;8926;49.720;6.576;2023-04-23T03:02:26;2.07;;;1.97;;
17614;SDS011;8926;49.720;6.576;2023-04-23T03:04:51;2.37;;;2.27;;
17614;SDS011;8926;49.720;6.576;2023-04-23T03:07:16;1.90;;;1.80;;
17614;SDS011;8926;49.720;6.576;2023-04-23T03:09:42;2.07;;;1.97;;
17614;SDS011;8926;49.720;6.576;2023-04-23T03:12:07;2.73;;;2.63;;
17614;SDS011;8926;49.720;6.576;2023-04-23T03:14:33;2.77;;;2.60;;
17614;SDS011;8926;49.720;6.576;2023-04-23T03:16:58;2.57;;;2.47;;
17614;SDS011;8926;49.720;6.576;2023-04-23T03:19:24;2.50;;;2.40;;
17614;SDS011;8926;49.720;6.576;2023-04-23T03:21:49;2.90;;;2.73;;
17614;SDS011;8926;49.720;6.576;2023-04-23T03:24:14;2.20;;;2.10;;
17614;SDS011;8926;49.720;6.576;2023-04-23T03:26:40;2.40;;;2.30;;
17614;SDS011;8926;49.720;6.576;2023-04-23T03:29:06;1.90;;;1.80;;
17614;SDS011;8926;49.720;6.576;2023-04-23T03:31:31;2.17;;;2.07;;
17614;SDS011;8926;49.720;6.576;2023-04-23T03:33:57;2.33;;;2.23;;
17614;SDS011;8926;49.720;6.576;2023-04-23T03:36:22;2.60;;;2.40;;
17614;SDS011;8926;49.720;6.576;2023-04-23T03:38:47;2.30;;;2.20;;
17614;SDS011;8926;49.720;6.576;2023-04-23T03:41:12;2.30;;;2.20;;
17614;SDS011;8926;49.720;6.576;2023-04-23T03:43:38;3.33;;;3.13;;
17614;SDS011;8926;49.720;6.576;2023-04-23T03:46:03;2.70;;;2.60;;
17614;SDS011;8926;49.720;6.576;2023-04-23T03:48:28;3.73;;;3.53;;
17614;SDS011;8926;49.720;6.576;2023-04-23T03:50:54;4.47;;;4.17;;
17614;SDS011;8926;49.720;6.576;2023-04-23T03:53:19;3.73;;;3.53;;
17614;SDS011;8926;49.720;6.576;2023-04-23T03:55:45;3.63;;;3.43;;
17614;SDS011;8926;49.720;6.576;2023-04-23T03:58:10;4.60;;;4.30;;
17614;SDS011;8926;49.720;6.576;2023-04-23T04:00:36;3.53;;;3.33;;
17614;SDS011;8926;49.720;6.576;2023-04-23T04:03:01;4.53;;;4.23;;
17614;SDS011;8926;49.720;6.576;2023-04-23T04:05:27;3.33;;;3.13;;
17614;SDS011;8926;49.720;6.576;2023-04-23T04:07:52;3.70;;;3.50;;
17614;SDS011;8926;49.720;6.576;2023-04-23T04:10:18;4.43;;;4.13;;
17614;SDS011;8926;49.720;6.576;2023-04-23T04:12:43;3.50;;;3.30;;
17614;SDS011;8926;49.720;6.576;2023-04-23T04:15:11;3.23;;;3.10;;
17614;SDS011;8926;49.720;6.576;2023-04-23T04:17:37;2.70;;;2.60;;
17614;SDS011;8926;49.720;6.576;2023-04-23T04:20:02;3.70;;;3.50;;
17614;SDS011;8926;49.720;6.576;2023-04-23T04:22:28;2.60;;;2.50;;
17614;SDS011;8926;49.720;6.576;2023-04-23T04:24:53;2.23;;;2.13;;
17614;SDS011;8926;49.720;6.576;2023-04-23T04:27:18;3.10;;;2.90;;
17614;SDS011;8926;49.720;6.576;2023-04-23T04:29:44;4.40;;;3.10;;
17614;SDS011;8926;49.720;6.576;2023-04-23T04:32:09;2.67;;;2.57;;
17614;SDS011;8926;49.720;6.576;2023-04-23T04:34:35;2.87;;;2.77;;
17614;SDS011;8926;49.720;6.576;2023-04-23T04:37:02;2.90;;;2.70;;
17614;SDS011;8926;49.720;6.576;2023-04-23T04:39:27;2.67;;;2.57;;
17614;SDS011;8926;49.720;6.576;2023-04-23T04:41:52;3.20;;;2.93;;
17614;SDS011;8926;49.720;6.576;2023-04-23T04:44:18;3.53;;;3.23;;
17614;SDS011;8926;49.720;6.576;2023-04-23T04:46:44;2.93;;;2.80;;
17614;SDS011;8926;49.720;6.576;2023-04-23T04:49:10;2.20;;;2.10;;
17614;SDS011;8926;49.720;6.576;2023-04-23T04:51:36;3.03;;;2.83;;
17614;SDS011;8926;49.720;6.576;2023-04-23T04:54:02;2.80;;;2.70;;
17614;SDS011;8926;49.720;6.576;2023-04-23T04:56:28;2.33;;;2.23;;
17614;SDS011;8926;49.720;6.576;2023-04-23T04:58:53;2.93;;;2.83;;
17614;SDS011;8926;49.720;6.576;2023-04-23T05:01:19;2.23;;;2.13;;
17614;SDS011;8926;49.720;6.576;2023-04-23T05:03:47;2.67;;;2.57;;
17614;SDS011;8926;49.720;6.576;2023-04-23T05:06:12;2.10;;;2.00;;
17614;SDS011;8926;49.720;6.576;2023-04-23T05:08:37;2.27;;;2.17;;
17614;SDS011;8926;49.720;6.576;2023-04-23T05:11:03;4.17;;;2.20;;
17614;SDS011;8926;49.720;6.576;2023-04-23T05:13:29;2.33;;;2.23;;
17614;SDS011;8926;49.720;6.576;2023-04-23T05:15:54;2.83;;;2.63;;
17614;SDS011;8926;49.720;6.576;2023-04-23T05:18:19;2.40;;;2.30;;
17614;SDS011;8926;49.720;6.576;2023-04-23T05:20:45;2.70;;;2.50;;
17614;SDS011;8926;49.720;6.576;2023-04-23T05:23:10;2.57;;;2.47;;
17614;SDS011;8926;49.720;6.576;2023-04-23T05:25:35;2.83;;;2.73;;
17614;SDS011;8926;49.720;6.576;2023-04-23T05:28:01;3.60;;;3.40;;
17614;SDS011;8926;49.720;6.576;2023-04-23T05:30:26;3.00;;;2.80;;
17614;SDS011;8926;49.720;6.576;2023-04-23T05:32:51;3.63;;;3.33;;
17614;SDS011;8926;49.720;6.576;2023-04-23T05:35:17;3.90;;;3.70;;
17614;SDS011;8926;49.720;6.576;2023-04-23T05:37:43;4.03;;;3.83;;
17614;SDS011;8926;49.720;6.576;2023-04-23T05:40:08;3.30;;;3.10;;
17614;SDS011;8926;49.720;6.576;2023-04-23T05:42:34;3.73;;;3.43;;
17614;SDS011;8926;49.720;6.576;2023-04-23T05:45:00;3.87;;;3.57;;
17614;SDS011;8926;49.720;6.576;2023-04-23T05:47:25;3.50;;;3.30;;
17614;SDS011;8926;49.720;6.576;2023-04-23T05:49:50;3.17;;;2.97;;
17614;SDS011;8926;49.720;6.576;2023-04-23T05:52:16;2.63;;;2.53;;
17614;SDS011;8926;49.720;6.576;2023-04-23T05:54:42;3.00;;;2.80;;
17614;SDS011;8926;49.720;6.576;2023-04-23T05:57:07;2.80;;;2.60;;
17614;SDS011;8926;49.720;6.576;2023-04-23T05:59:33;2.60;;;2.50;;
17614;SDS011;8926;49.720;6.576;2023-04-23T06:01:58;3.20;;;3.00;;
17614;SDS011;8926;49.720;6.576;2023-04-23T06:04:24;3.40;;;3.20;;
17614;SDS011;8926;49.720;6.576;2023-04-23T06:06:49;3.50;;;3.30;;
17614;SDS011;8926;49.720;6.576;2023-04-23T06:09:14;2.90;;;2.80;;
17614;SDS011;8926;49.720;6.576;2023-04-23T06:11:40;3.63;;;3.43;;
17614;SDS011;8926;49.720;6.576;2023-04-23T06:14:05;2.80;;;2.70;;
17614;SDS011;8926;49.720;6.576;2023-04-23T06:16:30;4.17;;;3.87;;
17614;SDS011;8926;49.720;6.576;2023-04-23T06:18:56;6.63;;;6.13;;
17614;SDS011;8926;49.720;6.576;2023-04-23T06:21:21;4.90;;;4.50;;
17614;SDS011;8926;49.720;6.576;2023-04-23T06:23:47;5.67;;;5.10;;
17614;SDS011;8926;49.720;6.576;2023-04-23T06:26:13;8.77;;;7.47;;
17614;SDS011;8926;49.720;6.576;2023-04-23T06:28:40;5.40;;;4.90;;
17614;SDS011;8926;49.720;6.576;2023-04-23T06:31:06;13.07;;;11.33;;
17614;SDS011;8926;49.720;6.576;2023-04-23T06:33:32;5.80;;;4.87;;
17614;SDS011;8926;49.720;6.576;2023-04-23T06:35:58;8.77;;;7.70;;
17614;SDS011;8926;49.720;6.576;2023-04-23T06:38:23;5.80;;;5.30;;
17614;SDS011;8926;49.720;6.576;2023-04-23T06:40:49;7.17;;;6.47;;
17614;SDS011;8926;49.720;6.576;2023-04-23T06:43:14;7.20;;;6.60;;
17614;SDS011;8926;49.720;6.576;2023-04-23T06:45:39;6.03;;;5.47;;
17614;SDS011;8926;49.720;6.576;2023-04-23T06:48:05;4.17;;;3.87;;
17614;SDS011;8926;49.720;6.576;2023-04-23T06:50:31;4.23;;;3.90;;
17614;SDS011;8926;49.720;6.576;2023-04-23T06:52:56;4.33;;;3.20;;
17614;SDS011;8926;49.720;6.576;2023-04-23T06:55:21;3.40;;;3.20;;
17614;SDS011;8926;49.720;6.576;2023-04-23T06:57:52;3.30;;;3.10;;
17614;SDS011;8926;49.720;6.576;2023-04-23T07:00:18;3.60;;;3.30;;
17614;SDS011;8926;49.720;6.576;2023-04-23T07:02:44;3.50;;;3.30;;
17614;SDS011;8926;49.720;6.576;2023-04-23T07:05:10;3.90;;;3.60;;
17614;SDS011;8926;49.720;6.576;2023-04-23T07:07:37;3.63;;;3.43;;
17614;SDS011;8926;49.720;6.576;2023-04-23T07:10:05;3.70;;;3.50;;
17614;SDS011;8926;49.720;6.576;2023-04-23T07:12:31;3.20;;;3.00;;
17614;SDS011;8926;49.720;6.576;2023-04-23T07:14:56;3.43;;;3.13;;
17614;SDS011;8926;49.720;6.576;2023-04-23T07:17:22;5.20;;;3.30;;
17614;SDS011;8926;49.720;6.576;2023-04-23T07:19:47;3.00;;;2.80;;
17614;SDS011;8926;49.720;6.576;2023-04-23T07:22:12;2.97;;;2.77;;
17614;SDS011;8926;49.720;6.576;2023-04-23T07:24:38;3.13;;;2.93;;
17614;SDS011;8926;49.720;6.576;2023-04-23T07:27:03;3.10;;;2.90;;
17614;SDS011;8926;49.720;6.576;2023-04-23T07:29:29;3.33;;;3.03;;
17614;SDS011;8926;49.720;6.576;2023-04-23T07:31:55;3.00;;;2.80;;
17614;SDS011;8926;49.720;6.576;2023-04-23T07:34:20;3.20;;;2.90;;
17614;SDS011;8926;49.720;6.576;2023-04-23T07:36:45;2.90;;;2.70;;
17614;SDS011;8926;49.720;6.576;2023-04-23T07:39:11;2.27;;;2.13;;
17614;SDS011;8926;49.720;6.576;2023-04-23T07:41:36;2.57;;;2.37;;
17614;SDS011;8926;49.720;6.576;2023-04-23T07:44:02;2.70;;;2.40;;
17614;SDS011;8926;49.720;6.576;2023-04-23T07:46:28;3.03;;;2.83;;
17614;SDS011;8926;49.720;6.576;2023-04-23T07:48:53;4.20;;;3.30;;
17614;SDS011;8926;49.720;6.576;2023-04-23T07:51:19;4.20;;;3.00;;
17614;SDS011;8926;49.720;6.576;2023-04-23T07:53:46;3.10;;;2.80;;
17614;SDS011;8926;49.720;6.576;2023-04-23T07:56:15;3.40;;;2.60;;
17614;SDS011;8926;49.720;6.576;2023-04-23T07:58:40;3.30;;;3.00;;
17614;SDS011;8926;49.720;6.576;2023-04-23T08:01:06;2.40;;;2.30;;
17614;SDS011;8926;49.720;6.576;2023-04-23T08:03:31;2.97;;;2.63;;
17614;SDS011;8926;49.720;6.576;2023-04-23T08:05:56;3.07;;;2.53;;
17614;SDS011;8926;49.720;6.576;2023-04-23T08:08:22;3.60;;;3.10;;
17614;SDS011;8926;49.720;6.576;2023-04-23T08:10:47;3.30;;;2.70;;
17614;SDS011;8926;49.720;6.576;2023-04-23T08:13:12;2.60;;;2.40;;
17614;SDS011;8926;49.720;6.576;2023-04-23T08:15:38;2.20;;;2.10;;
17614;SDS011;8926;49.720;6.576;2023-04-23T08:18:03;2.77;;;2.37;;
17614;SDS011;8926;49.720;6.576;2023-04-23T08:20:29;2.90;;;2.70;;
17614;SDS011;8926;49.720;6.576;2023-04-23T08:22:56;2.40;;;2.20;;
17614;SDS011;8926;49.720;6.576;2023-04-23T08:25:21;2.30;;;2.10;;
17614;SDS011;8926;49.720;6.576;2023-04-23T08:27:46;2.50;;;2.30;;
17614;SDS011;8926;49.720;6.576;2023-04-23T08:30:12;2.37;;;2.17;;
17614;SDS011;8926;49.720;6.576;2023-04-23T08:32:37;4.13;;;3.03;;
17614;SDS011;8926;49.720;6.576;2023-04-23T08:35:04;2.47;;;2.27;;
17614;SDS011;8926;49.720;6.576;2023-04-23T08:37:29;2.20;;;2.10;;
17614;SDS011;8926;49.720;6.576;2023-04-23T08:39:54;2.60;;;2.17;;
17614;SDS011;8926;49.720;6.576;2023-04-23T08:42:25;3.70;;;2.40;;
17614;SDS011;8926;49.720;6.576;2023-04-23T08:44:57;2.07;;;1.97;;
17614;SDS011;8926;49.720;6.576;2023-04-23T08:47:23;2.37;;;2.17;;
17614;SDS011;8926;49.720;6.576;2023-04-23T08:49:51;1.97;;;1.87;;
17614;SDS011;8926;49.720;6.576;2023-04-23T08:52:21;2.40;;;2.27;;
17614;SDS011;8926;49.720;6.576;2023-04-23T08:54:48;2.30;;;1.77;;
17614;SDS011;8926;49.720;6.576;2023-04-23T08:57:16;2.03;;;1.80;;
17614;SDS011;8926;49.720;6.576;2023-04-23T08:59:42;1.87;;;1.73;;
17614;SDS011;8926;49.720;6.576;2023-04-23T09:02:08;2.47;;;2.27;;
17614;SDS011;8926;49.720;6.576;2023-04-23T09:04:34;2.40;;;2.20;;
17614;SDS011;8926;49.720;6.576;2023-04-23T09:07:01;2.40;;;2.20;;
17614;SDS011;8926;49.720;6.576;2023-04-23T09:09:28;4.93;;;2.67;;
17614;SDS011;8926;49.720;6.576;2023-04-23T09:11:55;2.13;;;1.93;;
17614;SDS011;8926;49.720;6.576;2023-04-23T09:14:21;2.90;;;2.13;;
17614;SDS011;8926;49.720;6.576;2023-04-23T09:16:49;2.07;;;1.90;;
17614;SDS011;8926;49.720;6.576;2023-04-23T09:19:15;4.40;;;2.20;;
17614;SDS011;8926;49.720;6.576;2023-04-23T09:21:41;2.57;;;2.30;;
17614;SDS011;8926;49.720;6.576;2023-04-23T09:24:10;2.57;;;2.37;;
17614;SDS011;8926;49.720;6.576;2023-04-23T09:26:36;1.97;;;1.77;;
17614;SDS011;8926;49.720;6.576;2023-04-23T09:29:12;2.60;;;2.40;;
17614;SDS011;8926;49.720;6.576;2023-04-23T09:31:42;2.50;;;2.10;;
17614;SDS011;8926;49.720;6.576;2023-04-23T09:34:08;3.30;;;2.60;;
17614;SDS011;8926;49.720;6.576;2023-04-23T09:36:33;4.50;;;2.30;;
17614;SDS011;8926;49.720;6.576;2023-04-23T09:39:01;2.83;;;1.97;;
17614;SDS011;8926;49.720;6.576;2023-04-23T09:41:26;3.10;;;2.00;;
17614;SDS011;8926;49.720;6.576;2023-04-23T09:43:54;4.67;;;2.27;;
17614;SDS011;8926;49.720;6.576;2023-04-23T09:49:02;3.10;;;1.93;;
17614;SDS011;8926;49.720;6.576;2023-04-23T09:51:29;1.90;;;1.80;;
17614;SDS011;8926;49.720;6.576;2023-04-23T09:53:54;2.40;;;1.90;;
17614;SDS011;8926;49.720;6.576;2023-04-23T09:56:20;1.70;;;1.60;;
17614;SDS011;8926;49.720;6.576;2023-04-23T09:58:45;2.30;;;2.10;;
17614;SDS011;8926;49.720;6.576;2023-04-23T10:01:11;2.30;;;1.97;;
17614;SDS011;8926;49.720;6.576;2023-04-23T10:03:41;5.77;;;2.57;;
17614;SDS011;8926;49.720;6.576;2023-04-23T10:06:08;2.33;;;2.10;;
17614;SDS011;8926;49.720;6.576;2023-04-23T10:08:37;2.20;;;2.00;;
17614;SDS011;8926;49.720;6.576;2023-04-23T10:11:04;2.87;;;2.10;;
17614;SDS011;8926;49.720;6.576;2023-04-23T10:13:30;1.50;;;1.40;;
17614;SDS011;8926;49.720;6.576;2023-04-23T10:15:55;2.73;;;1.80;;
17614;SDS011;8926;49.720;6.576;2023-04-23T10:18:21;3.40;;;2.00;;
17614;SDS011;8926;49.720;6.576;2023-04-23T10:20:47;2.90;;;2.03;;
17614;SDS011;8926;49.720;6.576;2023-04-23T10:23:14;2.50;;;1.73;;
17614;SDS011;8926;49.720;6.576;2023-04-23T10:25:43;3.33;;;1.90;;
17614;SDS011;8926;49.720;6.576;2023-04-23T10:28:09;2.60;;;1.83;;
17614;SDS011;8926;49.720;6.576;2023-04-23T10:30:36;1.97;;;1.87;;
17614;SDS011;8926;49.720;6.576;2023-04-23T10:33:01;2.60;;;1.97;;
17614;SDS011;8926;49.720;6.576;2023-04-23T10:35:28;2.97;;;2.00;;
17614;SDS011;8926;49.720;6.576;2023-04-23T10:37:53;2.27;;;1.90;;
17614;SDS011;8926;49.720;6.576;2023-04-23T10:40:29;3.50;;;2.30;;
17614;SDS011;8926;49.720;6.576;2023-04-23T10:42:56;4.63;;;2.27;;
17614;SDS011;8926;49.720;6.576;2023-04-23T10:45:21;2.93;;;1.90;;
17614;SDS011;8926;49.720;6.576;2023-04-23T10:47:47;2.40;;;2.20;;
17614;SDS011;8926;49.720;6.576;2023-04-23T10:50:28;2.77;;;1.83;;
17614;SDS011;8926;49.720;6.576;2023-04-23T10:52:58;2.00;;;1.57;;
17614;SDS011;8926;49.720;6.576;2023-04-23T10:55:26;2.50;;;1.60;;
17614;SDS011;8926;49.720;6.576;2023-04-23T11:00:27;3.20;;;1.97;;
17614;SDS011;8926;49.720;6.576;2023-04-23T11:02:53;2.10;;;1.80;;
17614;SDS011;8926;49.720;6.576;2023-04-23T11:05:22;3.03;;;2.73;;
17614;SDS011;8926;49.720;6.576;2023-04-23T11:08:02;4.17;;;3.00;;
17614;SDS011;8926;49.720;6.576;2023-04-23T11:10:30;2.40;;;2.20;;
17614;SDS011;8926;49.720;6.576;2023-04-23T11:12:55;2.80;;;2.10;;
17614;SDS011;8926;49.720;6.576;2023-04-23T11:15:21;3.37;;;2.43;;
17614;SDS011;8926;49.720;6.576;2023-04-23T11:20:13;2.00;;;1.90;;
17614;SDS011;8926;49.720;6.576;2023-04-23T11:22:46;2.47;;;2.23;;
17614;SDS011;8926;49.720;6.576;2023-04-23T11:25:14;3.40;;;2.10;;
17614;SDS011;8926;49.720;6.576;2023-04-23T11:27:46;1.60;;;1.50;;
17614;SDS011;8926;49.720;6.576;2023-04-23T11:30:19;1.83;;;1.73;;
17614;SDS011;8926;49.720;6.576;2023-04-23T11:32:47;1.80;;;1.70;;
17614;SDS011;8926;49.720;6.576;2023-04-23T11:35:16;3.37;;;2.30;;
17614;SDS011;8926;49.720;6.576;2023-04-23T11:37:43;3.77;;;3.47;;
17614;SDS011;8926;49.720;6.576;2023-04-23T11:40:12;2.40;;;2.20;;
17614;SDS011;8926;49.720;6.576;2023-04-23T11:42:43;2.37;;;2.10;;
17614;SDS011;8926;49.720;6.576;2023-04-23T11:45:18;2.17;;;1.90;;
17614;SDS011;8926;49.720;6.576;2023-04-23T11:47:48;1.90;;;1.80;;
17614;SDS011;8926;49.720;6.576;2023-04-23T11:50:18;2.50;;;2.10;;
17614;SDS011;8926;49.720;6.576;2023-04-23T11:52:44;2.07;;;1.97;;
17614;SDS011;8926;49.720;6.576;2023-04-23T11:55:09;1.97;;;1.63;;
17614;SDS011;8926;49.720;6.576;2023-04-23T11:57:35;1.40;;;1.40;;
17614;SDS011;8926;49.720;6.576;2023-04-23T12:00:17;2.13;;;1.97;;
17614;SDS011;8926;49.720;6.576;2023-04-23T12:05:39;1.60;;;1.50;;
17614;SDS011;8926;49.720;6.576;2023-04-23T12:08:15;1.67;;;1.53;;
17614;SDS011;8926;49.720;6.576;2023-04-23T12:10:46;2.00;;;1.83;;
17614;SDS011;8926;49.720;6.576;2023-04-23T12:13:23;1.70;;;1.60;;
17614;SDS011;8926;49.720;6.576;2023-04-23T12:15:52;1.77;;;1.60;;
17614;SDS011;8926;49.720;6.576;2023-04-23T12:18:25;1.33;;;1.33;;
17614;SDS011;8926;49.720;6.576;2023-04-23T12:20:55;1.40;;;1.30;;
17614;SDS011;8926;49.720;6.576;2023-04-23T12:23:28;1.63;;;1.40;;
17614;SDS011;8926;49.720;6.576;2023-04-23T12:25:54;1.93;;;1.73;;
17614;SDS011;8926;49.720;6.576;2023-04-23T12:28:22;2.93;;;2.07;;
17614;SDS011;8926;49.720;6.576;2023-04-23T12:30:48;1.57;;;1.30;;
17614;SDS011;8926;49.720;6.576;2023-04-23T12:33:14;2.03;;;1.50;;
17614;SDS011;8926;49.720;6.576;2023-04-23T12:35:43;3.17;;;1.77;;
17614;SDS011;8926;49.720;6.576;2023-04-23T12:40:52;2.30;;;1.40;;
17614;SDS011;8926;49.720;6.576;2023-04-23T12:43:19;1.70;;;1.27;;
17614;SDS011;8926;49.720;6.576;2023-04-23T12:45:44;2.03;;;1.30;;
17614;SDS011;8926;49.720;6.576;2023-04-23T12:48:10;2.10;;;1.20;;
17614;SDS011;8926;49.720;6.576;2023-04-23T12:50:36;2.03;;;1.30;;
17614;SDS011;8926;49.720;6.576;2023-04-23T12:53:02;1.60;;;1.40;;
17614;SDS011;8926;49.720;6.576;2023-04-23T12:55:27;2.13;;;1.43;;
17614;SDS011;8926;49.720;6.576;2023-04-23T12:57:53;2.33;;;1.20;;
17614;SDS011;8926;49.720;6.576;2023-04-23T13:00:18;1.27;;;1.17;;
17614;SDS011;8926;49.720;6.576;2023-04-23T13:02:44;2.30;;;1.67;;
17614;SDS011;8926;49.720;6.576;2023-04-23T13:05:09;1.60;;;1.50;;
17614;SDS011;8926;49.720;6.576;2023-04-23T13:07:35;2.13;;;1.03;;
17614;SDS011;8926;49.720;6.576;2023-04-23T13:10:00;1.77;;;1.10;;
17614;SDS011;8926;49.720;6.576;2023-04-23T13:12:25;1.30;;;1.03;;
17614;SDS011;8926;49.720;6.576;2023-04-23T13:14:51;1.20;;;1.10;;
17614;SDS011;8926;49.720;6.576;2023-04-23T13:17:16;1.50;;;1.10;;
17614;SDS011;8926;49.720;6.576;2023-04-23T13:19:42;1.47;;;1.37;;
17614;SDS011;8926;49.720;6.576;2023-04-23T13:22:08;1.17;;;1.07;;
17614;SDS011;8926;49.720;6.576;2023-04-23T13:24:34;1.33;;;1.20;;
17614;SDS011;8926;49.720;6.576;2023-04-23T13:26:59;1.10;;;0.90;;
17614;SDS011;8926;49.720;6.576;2023-04-23T13:29:25;1.63;;;1.13;;
17614;SDS011;8926;49.720;6.576;2023-04-23T13:31:51;1.83;;;1.50;;
17614;SDS011;8926;49.720;6.576;2023-04-23T13:34:18;2.23;;;1.80;;
17614;SDS011;8926;49.720;6.576;2023-04-23T13:36:43;1.00;;;0.97;;
17614;SDS011;8926;49.720;6.576;2023-04-23T13:39:08;1.17;;;1.10;;
17614;SDS011;8926;49.720;6.576;2023-04-23T13:41:36;1.30;;;1.20;;
17614;SDS011;8926;49.720;6.576;2023-04-23T13:44:01;1.53;;;1.43;;
17614;SDS011;8926;49.720;6.576;2023-04-23T13:46:27;0.90;;;0.90;;
17614;SDS011;8926;49.720;6.576;2023-04-23T13:48:52;2.23;;;2.03;;
17614;SDS011;8926;49.720;6.576;2023-04-23T13:51:18;1.43;;;1.33;;
17614;SDS011;8926;49.720;6.576;2023-04-23T13:53:43;1.33;;;1.30;;
17614;SDS011;8926;49.720;6.576;2023-04-23T13:56:08;1.57;;;1.30;;
17614;SDS011;8926;49.720;6.576;2023-04-23T13:58:33;1.67;;;1.20;;
17614;SDS011;8926;49.720;6.576;2023-04-23T14:00:59;1.17;;;0.90;;
17614;SDS011;8926;49.720;6.576;2023-04-23T14:03:24;0.90;;;0.90;;
17614;SDS011;8926;49.720;6.576;2023-04-23T14:05:50;0.97;;;0.90;;
17614;SDS011;8926;49.720;6.576;2023-04-23T14:08:15;1.37;;;1.00;;
17614;SDS011;8926;49.720;6.576;2023-04-23T14:10:40;1.40;;;1.30;;
17614;SDS011;8926;49.720;6.576;2023-04-23T14:13:05;2.23;;;0.93;;
17614;SDS011;8926;49.720;6.576;2023-04-23T14:15:31;1.53;;;0.93;;
17614;SDS011;8926;49.720;6.576;2023-04-23T14:17:56;1.00;;;1.00;;
17614;SDS011;8926;49.720;6.576;2023-04-23T14:20:23;1.23;;;0.70;;
17614;SDS011;8926;49.720;6.576;2023-04-23T14:22:49;1.37;;;1.23;;
17614;SDS011;8926;49.720;6.576;2023-04-23T14:25:23;1.50;;;1.00;;
17614;SDS011;8926;49.720;6.576;2023-04-23T14:27:54;1.60;;;1.50;;
17614;SDS011;8926;49.720;6.576;2023-04-23T14:30:21;2.07;;;1.97;;
17614;SDS011;8926;49.720;6.576;2023-04-23T14:32:48;2.13;;;1.93;;
17614;SDS011;8926;49.720;6.576;2023-04-23T14:35:14;3.40;;;3.20;;
17614;SDS011;8926;49.720;6.576;2023-04-23T14:37:40;1.97;;;1.73;;
17614;SDS011;8926;49.720;6.576;2023-04-23T14:40:12;2.13;;;1.27;;
17614;SDS011;8926;49.720;6.576;2023-04-23T14:42:43;1.13;;;0.90;;
17614;SDS011;8926;49.720;6.576;2023-04-23T14:45:09;0.90;;;0.90;;
17614;SDS011;8926;49.720;6.576;2023-04-23T14:47:35;1.00;;;0.97;;
17614;SDS011;8926;49.720;6.576;2023-04-23T14:50:00;0.73;;;0.73;;
17614;SDS011;8926;49.720;6.576;2023-04-23T14:52:25;0.77;;;0.77;;
17614;SDS011;8926;49.720;6.576;2023-04-23T14:54:51;0.70;;;0.70;;
17614;SDS011;8926;49.720;6.576;2023-04-23T14:57:18;1.20;;;1.17;;
17614;SDS011;8926;49.720;6.576;2023-04-23T14:59:43;1.10;;;1.00;;
17614;SDS011;8926;49.720;6.576;2023-04-23T15:02:08;0.70;;;0.70;;
17614;SDS011;8926;49.720;6.576;2023-04-23T15:04:35;1.30;;;1.20;;
17614;SDS011;8926;49.720;6.576;2023-04-23T15:07:01;0.87;;;0.63;;